createdAt,value
2017-12-02T00:02:19.048Z,21.23
2017-12-02T00:04:47.447Z,21.97
2017-12-02T00:07:15.537Z,22.17
2017-12-02T00:09:42.990Z,22.17
2017-12-02T00:12:11.288Z,21.63
2017-12-02T00:14:38.738Z,23.13
2017-12-02T00:17:06.287Z,23.87
2017-12-02T00:19:35.116Z,21.03
2017-12-02T00:22:02.810Z,22.60
2017-12-02T00:24:34.880Z,21.97
2017-12-02T00:27:02.431Z,20.87
2017-12-02T00:29:30.072Z,20.43
2017-12-02T00:32:00.100Z,24.07
2017-12-02T00:34:27.745Z,22.83
2017-12-02T00:36:55.814Z,22.93
2017-12-02T00:39:23.318Z,22.53
2017-12-02T00:41:51.736Z,21.77
2017-12-02T00:44:19.210Z,21.43
2017-12-02T00:46:46.796Z,21.70
2017-12-02T00:49:15.137Z,21.73
2017-12-02T00:51:43.374Z,21.80
2017-12-02T00:54:11.752Z,22.83
2017-12-02T00:56:41.335Z,21.50
2017-12-02T00:59:10.703Z,22.00
2017-12-02T01:01:38.330Z,21.20
2017-12-02T01:04:06.085Z,21.10
2017-12-02T01:06:33.790Z,20.43
2017-12-02T01:09:07.217Z,19.53
2017-12-02T01:11:34.711Z,20.37
2017-12-02T01:14:02.274Z,21.23
2017-12-02T01:16:30.008Z,20.90
2017-12-02T01:18:57.967Z,21.17
2017-12-02T01:21:25.459Z,20.67
2017-12-02T01:23:52.918Z,22.17
2017-12-02T01:26:20.462Z,21.03
2017-12-02T01:28:48.205Z,21.80
2017-12-02T01:31:15.724Z,21.73
2017-12-02T01:33:43.292Z,22.93
2017-12-02T01:36:10.973Z,21.00
2017-12-02T01:38:38.467Z,23.10
2017-12-02T01:41:07.609Z,22.67
2017-12-02T01:43:35.082Z,21.87
2017-12-02T01:46:02.561Z,21.80
2017-12-02T01:48:30.427Z,20.47
2017-12-02T01:50:57.950Z,21.67
2017-12-02T01:53:25.553Z,21.37
2017-12-02T01:55:53.143Z,21.23
2017-12-02T01:58:20.643Z,20.33
2017-12-02T02:00:48.222Z,19.73
2017-12-02T02:03:15.701Z,19.23
2017-12-02T02:05:43.377Z,21.70
2017-12-02T02:08:15.936Z,20.93
2017-12-02T02:10:43.379Z,21.73
2017-12-02T02:13:10.861Z,20.27
2017-12-02T02:15:38.384Z,20.80
2017-12-02T02:18:05.855Z,20.43
2017-12-02T02:20:33.437Z,20.10
2017-12-02T02:23:00.928Z,20.23
2017-12-02T02:25:28.449Z,20.47
2017-12-02T02:28:06.124Z,20.13
2017-12-02T02:30:33.727Z,20.57
2017-12-02T02:33:01.265Z,21.43
2017-12-02T02:35:28.750Z,20.10
2017-12-02T02:38:10.721Z,18.80
2017-12-02T02:40:38.151Z,21.23
2017-12-02T02:43:05.674Z,19.83
2017-12-02T02:45:33.175Z,19.57
2017-12-02T02:48:20.143Z,19.90
2017-12-02T02:50:47.768Z,19.97
2017-12-02T02:53:16.306Z,19.93
2017-12-02T02:55:43.898Z,20.40
2017-12-02T02:58:11.656Z,18.57
2017-12-02T03:00:39.178Z,20.07
2017-12-02T03:03:06.689Z,19.00
2017-12-02T03:05:34.233Z,20.73
2017-12-02T03:10:54.312Z,19.67
2017-12-02T03:13:22.146Z,20.63
2017-12-02T03:15:50.003Z,20.67
2017-12-02T03:18:19.204Z,19.97
2017-12-02T03:20:47.885Z,19.60
2017-12-02T03:23:16.031Z,20.63
2017-12-02T03:25:44.115Z,19.03
2017-12-02T03:28:11.684Z,20.77
2017-12-02T03:30:39.451Z,20.80
2017-12-02T03:33:07.084Z,19.80
2017-12-02T03:35:34.847Z,20.77
2017-12-02T03:38:03.847Z,19.77
2017-12-02T03:40:32.897Z,20.87
2017-12-02T03:43:01.645Z,19.93
2017-12-02T03:45:30.005Z,20.30
2017-12-02T03:47:57.498Z,20.57
2017-12-02T03:50:26.289Z,21.20
2017-12-02T03:52:54.455Z,20.37
2017-12-02T03:55:22.417Z,20.60
2017-12-02T03:57:50.205Z,20.70
2017-12-02T04:02:58.178Z,21.23
2017-12-02T04:05:26.262Z,21.20
2017-12-02T04:07:53.911Z,21.53
2017-12-02T04:10:23.587Z,21.60
2017-12-02T04:12:51.562Z,21.10
2017-12-02T04:15:20.172Z,22.40
2017-12-02T04:17:48.060Z,20.53
2017-12-02T04:20:15.632Z,21.43
2017-12-02T04:22:44.190Z,21.03
2017-12-02T04:25:13.596Z,21.00
2017-12-02T04:27:41.153Z,20.80
2017-12-02T04:30:09.399Z,20.90
2017-12-02T04:32:37.196Z,21.20
2017-12-02T04:35:05.039Z,21.37
2017-12-02T04:37:33.152Z,21.30
2017-12-02T04:40:00.775Z,21.07
2017-12-02T04:42:33.588Z,21.50
2017-12-02T04:45:02.096Z,21.70
2017-12-02T04:47:49.701Z,22.17
2017-12-02T04:50:17.946Z,20.20
2017-12-02T04:52:46.383Z,20.80
2017-12-02T04:55:14.440Z,18.53
2017-12-02T04:57:42.210Z,20.40
2017-12-02T05:00:10.556Z,20.83
2017-12-02T05:02:38.204Z,20.70
2017-12-02T05:05:06.047Z,20.40
2017-12-02T05:07:38.771Z,19.97
2017-12-02T05:10:08.322Z,21.77
2017-12-02T05:12:38.015Z,20.47
2017-12-02T05:15:05.629Z,18.90
2017-12-02T05:17:44.712Z,20.57
2017-12-02T05:20:13.236Z,21.80
2017-12-02T05:22:41.862Z,21.33
2017-12-02T05:25:11.439Z,22.00
2017-12-02T05:28:03.499Z,21.03
2017-12-02T05:30:31.998Z,21.30
2017-12-02T05:32:59.926Z,21.27
2017-12-02T05:35:28.264Z,21.07
2017-12-02T05:37:56.586Z,20.83
2017-12-02T05:40:24.590Z,21.00
2017-12-02T05:42:52.409Z,22.37
2017-12-02T05:45:20.659Z,21.37
2017-12-02T05:50:41.497Z,21.63
2017-12-02T05:53:09.717Z,22.07
2017-12-02T05:55:37.506Z,20.93
2017-12-02T05:58:24.490Z,22.03
2017-12-02T06:00:52.204Z,21.73
2017-12-02T06:03:21.298Z,21.93
2017-12-02T06:05:48.987Z,22.03
2017-12-02T06:08:16.577Z,20.77
2017-12-02T06:10:44.295Z,21.60
2017-12-02T06:13:11.781Z,21.03
2017-12-02T06:15:39.331Z,21.07
2017-12-02T06:18:06.929Z,21.80
2017-12-02T06:20:34.509Z,22.30
2017-12-02T06:23:02.051Z,22.07
2017-12-02T06:25:29.542Z,20.90
2017-12-02T06:27:56.972Z,22.03
2017-12-02T06:30:24.463Z,22.63
2017-12-02T06:32:51.923Z,22.00
2017-12-02T06:35:19.396Z,21.80
2017-12-02T06:40:39.691Z,22.10
2017-12-02T06:43:07.244Z,22.23
2017-12-02T06:45:34.834Z,22.30
2017-12-02T06:48:02.339Z,23.20
2017-12-02T06:50:30.176Z,22.60
2017-12-02T06:52:57.922Z,22.00
2017-12-02T06:55:26.513Z,21.27
2017-12-02T06:57:54.022Z,23.00
2017-12-02T07:00:21.499Z,22.83
2017-12-02T07:02:49.017Z,23.23
2017-12-02T07:05:16.617Z,22.23
2017-12-02T07:07:53.780Z,22.93
2017-12-02T07:10:21.324Z,22.60
2017-12-02T07:12:48.818Z,23.37
2017-12-02T07:15:16.293Z,22.03
2017-12-02T07:17:43.997Z,21.83
2017-12-02T07:20:12.315Z,21.40
2017-12-02T07:22:39.824Z,23.40
2017-12-02T07:25:07.380Z,24.67
2017-12-02T07:30:27.650Z,23.50
2017-12-02T07:32:55.485Z,23.47
2017-12-02T07:35:23.003Z,23.63
2017-12-02T07:37:50.801Z,23.20
2017-12-02T07:40:18.423Z,22.27
2017-12-02T07:42:46.806Z,22.73
2017-12-02T07:45:14.333Z,23.03
2017-12-02T07:50:14.579Z,24.70
2017-12-02T07:52:42.033Z,23.33
2017-12-02T07:55:09.623Z,25.40
2017-12-02T07:57:37.202Z,23.83
2017-12-02T08:00:04.782Z,24.63
2017-12-02T08:02:32.285Z,25.47
2017-12-02T08:04:59.737Z,25.13
2017-12-02T08:09:59.867Z,25.03
2017-12-02T08:12:27.371Z,25.13
2017-12-02T08:14:54.853Z,25.33
2017-12-02T08:17:22.338Z,24.97
2017-12-02T08:19:49.821Z,26.13
2017-12-02T08:22:17.363Z,24.53
2017-12-02T08:24:44.825Z,23.53
2017-12-02T08:27:12.344Z,23.30
2017-12-02T08:29:39.885Z,25.43
2017-12-02T08:32:07.495Z,25.23
2017-12-02T08:34:35.024Z,23.07
2017-12-02T08:37:02.515Z,25.07
2017-12-02T08:42:02.902Z,25.83
2017-12-02T08:44:30.406Z,24.30
2017-12-02T08:46:57.888Z,24.33
2017-12-02T08:49:25.404Z,26.07
2017-12-02T08:51:52.877Z,27.00
2017-12-02T08:54:20.392Z,25.97
2017-12-02T08:56:47.893Z,26.03
2017-12-02T08:59:15.324Z,26.63
2017-12-02T09:01:42.813Z,25.17
2017-12-02T09:04:10.257Z,25.87
2017-12-02T09:06:37.747Z,26.30
2017-12-02T09:09:05.503Z,23.77
2017-12-02T09:11:33.002Z,25.70
2017-12-02T09:14:00.520Z,25.93
2017-12-02T09:16:27.996Z,27.97
2017-12-02T09:18:55.550Z,25.63
2017-12-02T09:21:23.050Z,25.50
2017-12-02T09:23:50.596Z,24.53
2017-12-02T09:26:18.155Z,26.70
2017-12-02T09:28:45.755Z,25.73
2017-12-02T09:31:13.274Z,24.50
2017-12-02T09:33:41.013Z,24.80
2017-12-02T09:36:08.478Z,26.00
2017-12-02T09:38:35.991Z,27.27
2017-12-02T09:41:04.325Z,26.80
2017-12-02T09:43:31.787Z,25.37
2017-12-02T09:48:32.195Z,26.53
2017-12-02T09:51:00.985Z,25.17
2017-12-02T09:53:28.456Z,26.10
2017-12-02T09:55:55.961Z,24.70
2017-12-02T09:58:23.503Z,25.20
2017-12-02T10:00:50.949Z,25.00
2017-12-02T10:03:18.460Z,25.13
2017-12-02T10:08:32.942Z,23.70
2017-12-02T10:11:00.422Z,23.57
2017-12-02T10:13:28.017Z,23.27
2017-12-02T10:15:55.561Z,23.03
2017-12-02T10:18:23.051Z,22.80
2017-12-02T10:20:50.528Z,21.87
2017-12-02T10:23:18.053Z,23.67
2017-12-02T10:25:45.635Z,21.73
2017-12-02T10:28:13.149Z,22.27
2017-12-02T10:30:40.718Z,21.93
2017-12-02T10:33:08.290Z,23.30
2017-12-02T10:35:35.801Z,22.87
2017-12-02T10:38:03.282Z,22.80
2017-12-02T10:40:30.750Z,23.60
2017-12-02T10:42:58.225Z,23.63
2017-12-02T10:45:25.708Z,24.40
2017-12-02T10:47:53.193Z,23.50
2017-12-02T10:50:20.681Z,24.30
2017-12-02T10:52:48.124Z,22.93
2017-12-02T10:55:16.587Z,25.80
2017-12-02T10:57:53.717Z,23.93
2017-12-02T11:00:21.309Z,23.80
2017-12-02T11:02:48.827Z,23.60
2017-12-02T11:05:16.416Z,23.80
2017-12-02T11:07:43.946Z,23.90
2017-12-02T11:10:11.464Z,22.70
2017-12-02T11:12:38.994Z,22.57
2017-12-02T11:15:06.713Z,23.07
2017-12-02T11:17:34.328Z,23.83
2017-12-02T11:20:02.010Z,22.70
2017-12-02T11:22:30.539Z,23.77
2017-12-02T11:24:58.062Z,21.70
2017-12-02T11:27:25.574Z,22.77
2017-12-02T11:29:53.121Z,22.77
2017-12-02T11:32:20.681Z,22.87
2017-12-02T11:34:48.199Z,23.17
2017-12-02T11:37:15.698Z,21.90
2017-12-02T11:39:43.160Z,20.70
2017-12-02T11:42:10.696Z,19.10
2017-12-02T11:44:38.160Z,20.63
2017-12-02T11:47:05.706Z,22.10
2017-12-02T11:49:33.399Z,21.37
2017-12-02T11:52:00.960Z,21.43
2017-12-02T11:54:28.462Z,20.33
2017-12-02T11:56:55.970Z,20.10
2017-12-02T11:59:23.507Z,19.07
2017-12-02T12:01:50.970Z,18.80
2017-12-02T12:04:18.494Z,20.03
2017-12-02T12:06:46.444Z,19.17
2017-12-02T12:09:19.179Z,19.83
2017-12-02T12:11:46.986Z,19.03
2017-12-02T12:14:14.490Z,18.73
2017-12-02T12:16:42.201Z,18.90
2017-12-02T12:19:09.724Z,18.60
2017-12-02T12:21:37.270Z,18.87
2017-12-02T12:24:04.841Z,20.07
2017-12-02T12:26:32.725Z,17.40
2017-12-02T12:29:00.331Z,19.80
2017-12-02T12:31:27.812Z,18.37
2017-12-02T12:33:55.290Z,19.43
2017-12-02T12:36:22.801Z,20.17
2017-12-02T12:38:51.537Z,20.63
2017-12-02T12:41:19.192Z,20.37
2017-12-02T12:43:46.861Z,20.00
2017-12-02T12:46:14.443Z,20.57
2017-12-02T12:48:41.994Z,19.87
2017-12-02T12:51:09.578Z,19.80
2017-12-02T12:53:37.467Z,19.33
2017-12-02T12:56:05.033Z,19.27
2017-12-02T12:58:32.495Z,18.83
2017-12-02T13:01:00.124Z,19.40
2017-12-02T13:03:28.101Z,20.20
2017-12-02T13:05:55.678Z,20.17
2017-12-02T13:08:37.455Z,20.53
2017-12-02T13:11:05.729Z,19.90
2017-12-02T13:13:33.445Z,19.97
2017-12-02T13:16:00.997Z,18.23
2017-12-02T13:18:28.626Z,19.53
2017-12-02T13:20:56.293Z,18.70
2017-12-02T13:23:24.021Z,20.47
2017-12-02T13:25:51.709Z,20.30
2017-12-02T13:28:33.515Z,19.53
2017-12-02T13:31:01.062Z,19.80
2017-12-02T13:33:28.555Z,18.77
2017-12-02T13:35:56.084Z,17.33
2017-12-02T13:38:23.616Z,19.40
2017-12-02T13:40:51.091Z,20.30
2017-12-02T13:43:18.636Z,19.50
2017-12-02T13:45:46.125Z,19.60
2017-12-02T13:48:13.624Z,19.83
2017-12-02T13:50:41.119Z,18.97
2017-12-02T13:53:08.670Z,19.90
2017-12-02T13:55:36.226Z,20.03
2017-12-02T13:58:04.774Z,19.90
2017-12-02T14:00:33.004Z,17.97
2017-12-02T14:03:00.715Z,17.90
2017-12-02T14:05:29.136Z,17.83
2017-12-02T14:07:56.669Z,19.30
2017-12-02T14:10:24.212Z,22.33
2017-12-02T14:12:51.755Z,22.50
2017-12-02T14:15:19.275Z,20.83
2017-12-02T14:17:46.757Z,19.87
2017-12-02T14:20:14.837Z,22.63
2017-12-02T14:22:42.573Z,21.27
2017-12-02T14:25:10.113Z,23.33
2017-12-02T14:27:37.904Z,21.70
2017-12-02T14:30:06.348Z,19.77
2017-12-02T14:32:33.813Z,20.10
2017-12-02T14:35:02.091Z,21.63
2017-12-02T14:40:23.251Z,21.93
2017-12-02T14:42:50.777Z,20.33
2017-12-02T14:45:18.279Z,21.30
2017-12-02T14:50:38.168Z,21.73
2017-12-02T14:53:05.806Z,21.47
2017-12-02T14:55:33.296Z,21.20
2017-12-02T14:58:05.828Z,22.83
2017-12-02T15:00:33.295Z,22.67
2017-12-02T15:03:00.844Z,21.57
2017-12-02T15:05:28.316Z,21.03
2017-12-02T15:07:55.890Z,21.30
2017-12-02T15:10:23.432Z,21.73
2017-12-02T15:12:51.137Z,21.83
2017-12-02T15:15:18.766Z,20.67
2017-12-02T15:17:47.184Z,20.33
2017-12-02T15:20:18.861Z,20.87
2017-12-02T15:22:46.445Z,20.13
2017-12-02T15:25:18.027Z,20.47
2017-12-02T15:27:46.667Z,21.57
2017-12-02T15:30:15.243Z,20.97
2017-12-02T15:32:43.563Z,20.03
2017-12-02T15:35:11.923Z,19.83
2017-12-02T15:37:41.485Z,21.10
2017-12-02T15:40:09.152Z,21.43
2017-12-02T15:42:36.952Z,20.37
2017-12-02T15:45:04.752Z,21.93
2017-12-02T15:53:18.410Z,20.67
2017-12-02T15:55:46.051Z,19.63
2017-12-02T16:00:47.029Z,18.87
2017-12-02T16:03:14.640Z,17.80
2017-12-02T16:05:42.770Z,17.13
2017-12-02T16:08:10.318Z,16.97
2017-12-02T16:10:37.841Z,16.27
2017-12-02T16:13:05.428Z,16.50
2017-12-02T16:15:32.882Z,14.77
2017-12-02T16:18:00.619Z,16.50
2017-12-02T16:20:28.238Z,16.33
2017-12-02T16:22:57.096Z,17.17
2017-12-02T16:25:24.559Z,20.37
2017-12-02T16:27:57.281Z,19.53
2017-12-02T16:30:24.905Z,18.97
2017-12-02T16:32:52.348Z,18.93
2017-12-02T16:35:20.043Z,18.20
2017-12-02T16:37:47.987Z,18.83
2017-12-02T16:40:15.626Z,18.77
2017-12-02T16:42:43.983Z,18.43
2017-12-02T16:45:11.752Z,16.83
2017-12-02T16:47:39.448Z,17.97
2017-12-02T16:50:07.014Z,18.20
2017-12-02T16:52:35.327Z,16.27
2017-12-02T16:55:03.679Z,17.97
2017-12-02T16:57:31.319Z,16.90
2017-12-02T16:59:58.796Z,16.90
2017-12-02T17:02:26.289Z,16.57
2017-12-02T17:04:55.265Z,16.87
2017-12-02T17:07:37.023Z,17.57
2017-12-02T17:10:04.536Z,16.90
2017-12-02T17:12:32.230Z,16.53
2017-12-02T17:14:59.789Z,17.03
2017-12-02T17:17:27.359Z,16.27
2017-12-02T17:19:56.608Z,18.63
2017-12-02T17:22:24.074Z,16.73
2017-12-02T17:24:51.850Z,17.37
2017-12-02T17:27:21.095Z,16.87
2017-12-02T17:29:48.679Z,18.13
2017-12-02T17:32:16.245Z,17.77
2017-12-02T17:34:44.915Z,17.13
2017-12-02T17:37:15.191Z,18.97
2017-12-02T17:39:43.812Z,18.73
2017-12-02T17:42:11.602Z,16.60
2017-12-02T17:44:39.150Z,17.47
2017-12-02T17:47:09.858Z,15.90
2017-12-02T17:49:37.367Z,17.67
2017-12-02T17:52:04.851Z,20.90
2017-12-02T17:54:32.306Z,19.00
2017-12-02T17:56:59.763Z,21.07
2017-12-02T17:59:27.888Z,22.10
2017-12-02T18:01:59.650Z,20.67
2017-12-02T18:04:28.179Z,19.50
2017-12-02T18:06:57.208Z,20.00
2017-12-02T18:12:10.410Z,20.43
2017-12-02T18:14:41.519Z,19.47
2017-12-02T18:17:11.642Z,19.60
2017-12-02T18:19:42.726Z,19.20
2017-12-02T18:22:27.120Z,20.37
2017-12-02T18:24:57.955Z,19.43
2017-12-02T18:27:26.657Z,20.83
2017-12-02T18:29:56.973Z,20.90
2017-12-02T18:32:25.634Z,20.90
2017-12-02T18:34:54.957Z,20.50
2017-12-02T18:40:28.049Z,20.93
2017-12-02T18:42:58.120Z,19.67
2017-12-02T18:45:26.691Z,19.97
2017-12-02T18:48:00.522Z,22.20
2017-12-02T18:55:50.696Z,21.47
2017-12-02T18:58:25.345Z,20.73
2017-12-02T19:08:01.319Z,23.47
2017-12-02T19:10:38.941Z,22.20
2017-12-02T19:13:07.740Z,22.43
2017-12-02T19:15:37.910Z,22.27
2017-12-02T19:18:05.491Z,22.37
2017-12-02T19:20:33.751Z,22.97
2017-12-02T19:23:01.921Z,23.90
2017-12-02T19:25:29.869Z,24.13
2017-12-02T19:28:11.611Z,23.33
2017-12-02T19:30:39.069Z,25.00
2017-12-02T19:33:07.200Z,24.20
2017-12-02T19:35:34.658Z,22.40
2017-12-02T19:38:02.902Z,22.07
2017-12-02T19:40:30.798Z,20.13
2017-12-02T19:42:58.365Z,20.23
2017-12-02T19:45:25.874Z,20.93
2017-12-02T19:47:53.421Z,20.20
2017-12-02T19:50:22.807Z,21.20
2017-12-02T19:52:50.981Z,18.43
2017-12-02T19:55:18.482Z,18.97
2017-12-02T19:57:46.189Z,18.37
2017-12-02T20:00:15.443Z,17.93
2017-12-02T20:02:43.111Z,17.90
2017-12-02T20:05:10.764Z,18.67
2017-12-02T20:07:47.996Z,17.83
2017-12-02T20:12:52.079Z,18.73
2017-12-02T20:15:21.492Z,17.97
2017-12-02T20:17:49.213Z,17.47
2017-12-02T20:20:17.343Z,17.27
2017-12-02T20:22:44.976Z,17.77
2017-12-02T20:25:13.126Z,19.73
2017-12-02T20:27:59.903Z,19.80
2017-12-02T20:30:27.390Z,18.33
2017-12-02T20:32:54.860Z,19.07
2017-12-02T20:35:22.333Z,18.07
2017-12-02T20:37:50.264Z,16.97
2017-12-02T20:40:17.760Z,19.73
2017-12-02T20:42:45.497Z,16.97
2017-12-02T20:45:13.691Z,18.33
2017-12-02T20:47:41.477Z,16.90
2017-12-02T20:50:09.213Z,17.60
2017-12-02T20:52:36.791Z,16.90
2017-12-02T20:55:04.330Z,17.43
2017-12-02T20:57:42.600Z,17.90
2017-12-02T21:00:12.110Z,18.83
2017-12-02T21:02:39.925Z,17.17
2017-12-02T21:05:07.397Z,17.63
2017-12-02T21:10:51.030Z,16.07
2017-12-02T21:13:18.956Z,17.90
2017-12-02T21:15:48.207Z,17.60
2017-12-02T21:18:15.687Z,17.27
2017-12-02T21:20:43.232Z,18.03
2017-12-02T21:23:11.173Z,18.00
2017-12-02T21:25:38.859Z,16.87
2017-12-02T21:28:07.424Z,17.77
2017-12-02T21:30:35.467Z,16.90
2017-12-02T21:33:04.204Z,16.87
2017-12-02T21:35:31.808Z,16.00
2017-12-02T21:37:59.269Z,15.93
2017-12-02T21:40:26.752Z,16.43
2017-12-02T21:42:54.286Z,15.30
2017-12-02T21:45:23.595Z,15.50
2017-12-02T21:47:51.308Z,15.37
2017-12-02T21:50:18.809Z,15.60
2017-12-02T21:52:46.304Z,15.97
2017-12-02T21:55:13.737Z,16.73
2017-12-02T21:57:41.280Z,15.83
2017-12-02T22:00:08.933Z,14.60
2017-12-02T22:02:36.913Z,15.60
2017-12-02T22:05:04.702Z,14.10
2017-12-02T22:07:32.326Z,14.90
2017-12-02T22:10:00.119Z,15.10
2017-12-02T22:12:27.836Z,14.53
2017-12-02T22:14:56.363Z,16.00
2017-12-02T22:17:23.884Z,16.93
2017-12-02T22:19:52.199Z,14.83
2017-12-02T22:22:19.737Z,17.00
2017-12-02T22:24:47.242Z,16.63
2017-12-02T22:27:14.749Z,14.60
2017-12-02T22:29:42.482Z,15.87
2017-12-02T22:32:10.026Z,14.83
2017-12-02T22:34:37.596Z,15.43
2017-12-02T22:37:05.123Z,13.97
2017-12-02T22:39:32.602Z,14.77
2017-12-02T22:42:00.372Z,14.33
2017-12-02T22:44:27.930Z,13.63
2017-12-02T22:46:55.503Z,15.53
2017-12-02T22:49:23.055Z,13.60
2017-12-02T22:51:50.576Z,14.03
2017-12-02T22:54:18.164Z,14.77
2017-12-02T22:56:45.756Z,15.03
2017-12-02T22:59:18.267Z,13.50
2017-12-02T23:01:45.841Z,13.67
2017-12-02T23:04:13.563Z,14.30
2017-12-02T23:06:41.040Z,13.47
2017-12-02T23:09:08.973Z,13.67
2017-12-02T23:11:36.473Z,14.40
2017-12-02T23:14:04.009Z,13.87
2017-12-02T23:16:31.594Z,13.60
2017-12-02T23:18:59.149Z,14.03
2017-12-02T23:21:26.845Z,13.83
2017-12-02T23:23:54.778Z,13.33
2017-12-02T23:26:22.255Z,13.80
2017-12-02T23:28:49.693Z,13.50
2017-12-02T23:31:17.174Z,13.63
2017-12-02T23:33:44.602Z,13.13
2017-12-02T23:36:12.055Z,12.70
2017-12-02T23:41:32.299Z,13.10
2017-12-02T23:43:59.823Z,12.93
2017-12-02T23:46:27.537Z,13.47
2017-12-02T23:48:55.879Z,13.53
2017-12-02T23:51:23.309Z,13.90
2017-12-02T23:53:50.864Z,13.03
2017-12-02T23:56:18.328Z,13.17
2017-12-02T23:58:45.846Z,13.30
